| time (UTC) | temp C | wind direction | speed KPH | gust KPH | rain 1hr cm | rain 24hr cm | rain mn cm | humidity % | barometer mb |
| 20260506192709 | 20 | 150 | 0.0 | 4.8 | 0.00 | 0.00 | 0.00 | 77 | 1007.3 |
| 20260506192206 | 20 | 300 | 8.0 | 12.9 | 0.00 | 0.00 | 0.00 | 77 | 1007.3 |
| 20260506191703 | 19 | 201 | 0.0 | 4.8 | 0.00 | 0.00 | 0.00 | 78 | 1007.2 |
| 20260506191159 | 19 | 247 | 4.8 | 8.0 | 0.00 | 0.00 | 0.00 | 78 | 1007.2 |
| 20260506190657 | 19 | 189 | 1.6 | 4.8 | 0.00 | 0.00 | 0.00 | 78 | 1007.5 |
| 20260506190153 | 19 | 189 | 3.2 | 8.0 | 0.00 | 0.00 | 0.00 | 78 | 1007.3 |
| 20260506185650 | 19 | 176 | 0.0 | 4.8 | 0.00 | 0.00 | 0.00 | 78 | 1007.4 |
| 20260506185146 | 19 | 255 | 4.8 | 4.8 | 0.00 | 0.00 | 0.00 | 79 | 1007.5 |
| 20260506184644 | 19 | 238 | 8.0 | 11.3 | 0.00 | 0.00 | 0.00 | 79 | 1007.4 |
| 20260506184141 | 18 | 160 | 3.2 | 4.8 | 0.00 | 0.00 | 0.00 | 79 | 1007.6 |
| 20260506183637 | 18 | 130 | 1.6 | 8.0 | 0.00 | 0.00 | 0.00 | 80 | 1007.6 |
| 20260506183133 | 18 | 171 | 0.0 | 3.2 | 0.00 | 0.00 | 0.00 | 80 | 1007.7 |
| 20260506182631 | 18 | 204 | 3.2 | 4.8 | 0.00 | 0.00 | 0.00 | 80 | 1007.9 |
| 20260506182128 | 18 | 165 | 1.6 | 8.0 | 0.00 | 0.00 | 0.00 | 80 | 1007.9 |
| 20260506181626 | 18 | 175 | 1.6 | 8.0 | 0.00 | 0.00 | 0.00 | 80 | 1007.6 |
| 20260506181123 | 18 | 341 | 1.6 | 4.8 | 0.00 | 0.00 | 0.00 | 79 | 1007.8 |
| 20260506180620 | 18 | 138 | 4.8 | 12.9 | 0.00 | 0.00 | 0.00 | 80 | 1007.7 |
| 20260506180116 | 18 | 220 | 4.8 | 14.5 | 0.00 | 0.00 | 0.00 | 79 | 1007.7 |
| 20260506175612 | 18 | 251 | 4.8 | 16.1 | 0.00 | 0.00 | 0.00 | 79 | 1007.9 |
| 20260506175108 | 18 | 196 | 4.8 | 8.0 | 0.00 | 0.00 | 0.00 | 79 | 1007.9 |
| 20260506174608 | 18 | 140 | 1.6 | 9.7 | 0.00 | 0.00 | 0.00 | 78 | 1007.9 |
| 20260506174103 | 18 | 159 | 6.4 | 9.7 | 0.00 | 0.00 | 0.00 | 78 | 1007.9 |
| 20260506173601 | 18 | 64 | 0.0 | 4.8 | 0.00 | 0.00 | 0.00 | 80 | 1007.8 |
| 20260506173058 | 18 | 137 | 4.8 | 9.7 | 0.00 | 0.00 | 0.00 | 78 | 1008.1 |
| 20260506172555 | 18 | 237 | 1.6 | 4.8 | 0.00 | 0.00 | 0.00 | 79 | 1008.0 |
| 20260506172045 | 19 | 231 | 3.2 | 8.0 | 0.00 | 0.00 | 0.00 | 78 | 1008.1 |
| 20260506171543 | 19 | 264 | 4.8 | 8.0 | 0.00 | 0.00 | 0.00 | 78 | 1008.3 |
| 20260506171041 | 19 | 257 | 6.4 | 11.3 | 0.00 | 0.00 | 0.00 | 78 | 1008.2 |
| 20260506170538 | 19 | 268 | 3.2 | 3.2 | 0.00 | 0.00 | 0.00 | 78 | 1008.2 |
| 20260506170035 | 19 | 205 | 3.2 | 8.0 | 0.00 | 0.00 | 0.00 | 77 | 1008.3 |
| 20260506165533 | 20 | 87 | 1.6 | 4.8 | 0.00 | 0.00 | 0.00 | 77 | 1008.3 |
| 20260506165029 | 20 | 225 | 6.4 | 9.7 | 0.00 | 0.00 | 0.00 | 76 | 1008.3 |
| 20260506164526 | 19 | 94 | 1.6 | 8.0 | 0.00 | 0.00 | 0.00 | 78 | 1008.4 |
| 20260506164024 | 19 | 154 | 0.0 | 3.2 | 0.00 | 0.00 | 0.00 | 78 | 1008.1 |
| 20260506163520 | 20 | 139 | 1.6 | 4.8 | 0.00 | 0.00 | 0.00 | 78 | 1008.4 |
| 20260506163015 | 19 | 152 | 0.0 | 3.2 | 0.00 | 0.00 | 0.00 | 81 | 1008.3 |
| 20260506162512 | 18 | 158 | 4.8 | 9.7 | 0.00 | 0.00 | 0.00 | 80 | 1008.6 |
| 20260506162009 | 19 | 159 | 1.6 | 4.8 | 0.00 | 0.00 | 0.00 | 77 | 1009.0 |
| 20260506161507 | 20 | 135 | 3.2 | 8.0 | 0.00 | 0.00 | 0.00 | 74 | 1009.3 |
| 20260506161004 | 20 | 134 | 3.2 | 9.7 | 0.00 | 0.00 | 0.00 | 74 | 1009.5 |
| 20260506160502 | 20 | 169 | 4.8 | 12.9 | 0.00 | 0.00 | 0.00 | 71 | 1009.5 |
| 20260506155958 | 21 | 187 | 4.8 | 8.0 | 0.00 | 0.00 | 0.00 | 69 | 1009.2 |
| 20260506155456 | 21 | 266 | 3.2 | 9.7 | 0.00 | 0.00 | 0.00 | 69 | 1009.3 |
| 20260506153629 | 21 | 189 | 3.2 | 9.7 | 0.00 | 0.00 | 0.00 | 65 | 1009.1 |
| 20260506153126 | 21 | 227 | 1.6 | 3.2 | 0.00 | 0.00 | 0.00 | 66 | 1009.3 |
| 20260506152623 | 21 | 134 | 1.6 | 4.8 | 0.00 | 0.00 | 0.00 | 66 | 1009.1 |
| 20260506152120 | 21 | 140 | 1.6 | 1.6 | 0.00 | 0.00 | 0.00 | 66 | 1009.1 |
| 20260506151619 | 21 | 155 | 1.6 | 3.2 | 0.00 | 0.00 | 0.00 | 65 | 1009.1 |
| 20260506151115 | 21 | 183 | 3.2 | 3.2 | 0.00 | 0.00 | 0.00 | 65 | 1009.4 |
| 20260506150612 | 21 | 188 | 4.8 | 9.7 | 0.00 | 0.00 | 0.00 | 64 | 1009.2 |
| 20260506150109 | 21 | 161 | 3.2 | 9.7 | 0.00 | 0.00 | 0.00 | 65 | 1009.1 |
| 20260506145606 | 21 | 260 | 8.0 | 12.9 | 0.00 | 0.00 | 0.00 | 64 | 1009.4 |
| 20260506145103 | 21 | 297 | 8.0 | 9.7 | 0.00 | 0.00 | 0.00 | 65 | 1009.6 |
| 20260506144600 | 20 | 141 | 3.2 | 12.9 | 0.00 | 0.00 | 0.00 | 65 | 1009.3 |
| 20260506144056 | 20 | 198 | 1.6 | 12.9 | 0.00 | 0.00 | 0.00 | 65 | 1009.5 |
| 20260506143555 | 20 | 151 | 0.0 | 3.2 | 0.00 | 0.00 | 0.00 | 66 | 1009.4 |
| 20260506143052 | 20 | 157 | 1.6 | 3.2 | 0.00 | 0.00 | 0.00 | 66 | 1009.4 |
| 20260506142550 | 20 | 170 | 0.0 | 3.2 | 0.00 | 0.00 | 0.00 | 67 | 1009.4 |
| 20260506142048 | 20 | 243 | 3.2 | 8.0 | 0.00 | 0.00 | 0.00 | 65 | 1009.3 |
| 20260506141545 | 20 | 192 | 1.6 | 9.7 | 0.00 | 0.00 | 0.00 | 65 | 1009.5 |
| 20260506141044 | 20 | 213 | 3.2 | 3.2 | 0.00 | 0.00 | 0.00 | 65 | 1009.5 |
| 20260506140541 | 21 | 171 | 1.6 | 3.2 | 0.00 | 0.00 | 0.00 | 64 | 1009.4 |
| 20260506140038 | 21 | 165 | 0.0 | 4.8 | 0.00 | 0.00 | 0.00 | 64 | 1009.4 |
| 20260506135535 | 21 | 177 | 0.0 | 4.8 | 0.00 | 0.00 | 0.00 | 64 | 1009.3 |
| 20260506135031 | 20 | 150 | 1.6 | 4.8 | 0.00 | 0.00 | 0.00 | 64 | 1009.2 |
| 20260506134527 | 20 | 101 | 0.0 | 8.0 | 0.00 | 0.00 | 0.00 | 65 | 1009.1 |
| 20260506134023 | 20 | 115 | 6.4 | 9.7 | 0.00 | 0.00 | 0.00 | 65 | 1009.5 |
| 20260506133521 | 20 | 157 | 6.4 | 9.7 | 0.00 | 0.00 | 0.00 | 65 | 1009.1 |
| 20260506133018 | 20 | 103 | 4.8 | 11.3 | 0.00 | 0.00 | 0.00 | 65 | 1009.0 |
| 20260506132515 | 20 | 143 | 3.2 | 11.3 | 0.00 | 0.00 | 0.00 | 66 | 1009.4 |
| 20260506132012 | 20 | 228 | 6.4 | 9.7 | 0.00 | 0.00 | 0.00 | 66 | 1009.3 |
| 20260506131509 | 20 | 48 | 1.6 | 4.8 | 0.00 | 0.00 | 0.00 | 66 | 1009.2 |
| 20260506131006 | 20 | 246 | 3.2 | 4.8 | 0.00 | 0.00 | 0.00 | 66 | 1009.3 |
| 20260506130502 | 20 | 98 | 1.6 | 8.0 | 0.00 | 0.00 | 0.00 | 67 | 1009.6 |
| 20260506130000 | 20 | 186 | 1.6 | 8.0 | 0.00 | 0.00 | 0.00 | 66 | 1009.8 |
| 20260506125458 | 20 | 167 | 1.6 | 4.8 | 0.00 | 0.00 | 0.00 | 66 | 1009.5 |
| 20260506124955 | 20 | 149 | 0.0 | 3.2 | 0.00 | 0.00 | 0.00 | 66 | 1009.7 |
| 20260506124453 | 20 | 161 | 3.2 | 9.7 | 0.00 | 0.00 | 0.00 | 66 | 1009.5 |
| 20260506123951 | 20 | 150 | 3.2 | 14.5 | 0.00 | 0.00 | 0.00 | 66 | 1009.7 |
| 20260506123449 | 20 | 263 | 3.2 | 8.0 | 0.00 | 0.00 | 0.00 | 66 | 1009.5 |
| 20260506122946 | 20 | 248 | 3.2 | 11.3 | 0.00 | 0.00 | 0.00 | 67 | 1009.6 |
| 20260506122443 | 20 | 142 | 4.8 | 11.3 | 0.00 | 0.00 | 0.00 | 66 | 1009.4 |
| 20260506121941 | 20 | 161 | 1.6 | 8.0 | 0.00 | 0.00 | 0.00 | 67 | 1009.7 |
| 20260506121438 | 20 | 161 | 1.6 | 9.7 | 0.00 | 0.00 | 0.00 | 68 | 1009.5 |
| 20260506120935 | 20 | 7 | 3.2 | 9.7 | 0.00 | 0.00 | 0.00 | 68 | 1009.6 |
| 20260506120432 | 20 | 31 | 1.6 | 3.2 | 0.00 | 0.00 | 0.00 | 67 | 1009.6 |
| 20260506115929 | 19 | 91 | 3.2 | 9.7 | 0.00 | 0.00 | 0.00 | 69 | 1009.7 |
| 20260506115427 | 18 | 79 | 4.8 | 9.7 | 0.00 | 0.00 | 0.00 | 72 | 1009.6 |
| 20260506114925 | 19 | 113 | 4.8 | 8.0 | 0.00 | 0.00 | 0.00 | 71 | 1009.3 |
| 20260506114422 | 19 | 141 | 0.0 | 4.8 | 0.00 | 0.00 | 0.00 | 71 | 1009.3 |
| 20260506113921 | 19 | 144 | 1.6 | 4.8 | 0.00 | 0.00 | 0.00 | 70 | 1009.6 |
| 20260506113418 | 18 | 141 | 1.6 | 9.7 | 0.00 | 0.00 | 0.00 | 72 | 1009.8 |
| 20260506112915 | 18 | 119 | 1.6 | 4.8 | 0.00 | 0.00 | 0.00 | 72 | 1009.5 |
| 20260506112413 | 18 | 148 | 1.6 | 4.8 | 0.00 | 0.00 | 0.00 | 72 | 1009.3 |
| 20260506111910 | 18 | 128 | 3.2 | 3.2 | 0.00 | 0.00 | 0.00 | 72 | 1009.5 |
| 20260506111408 | 18 | 165 | 0.0 | 4.8 | 0.00 | 0.00 | 0.00 | 74 | 1009.4 |
| 20260506110905 | 18 | 23 | 3.2 | 3.2 | 0.00 | 0.00 | 0.00 | 73 | 1009.7 |
| 20260506110402 | 18 | 311 | 1.6 | 3.2 | 0.00 | 0.00 | 0.00 | 74 | 1009.7 |
| 20260506105858 | 17 | 159 | 1.6 | 4.8 | 0.00 | 0.00 | 0.00 | 74 | 1009.7 |
| 20260506105355 | 17 | 186 | 1.6 | 4.8 | 0.00 | 0.00 | 0.00 | 76 | 1009.7 |
| 20260506104853 | 17 | 149 | 1.6 | 3.2 | 0.00 | 0.00 | 0.00 | 77 | 1009.7 |
| 20260506104350 | 17 | 156 | 1.6 | 3.2 | 0.00 | 0.00 | 0.00 | 79 | 1009.7 |
| 20260506103848 | 17 | 106 | 0.0 | 3.2 | 0.00 | 0.00 | 0.00 | 78 | 1009.6 |
| 20260506103345 | 17 | 169 | 1.6 | 3.2 | 0.00 | 0.00 | 0.00 | 78 | 1009.5 |
| 20260506102842 | 17 | 140 | 0.0 | 4.8 | 0.00 | 0.00 | 0.00 | 78 | 1009.5 |
| 20260506102340 | 17 | 294 | 4.8 | 4.8 | 0.00 | 0.00 | 0.00 | 79 | 1009.7 |
| 20260506101837 | 17 | 129 | 3.2 | 3.2 | 0.00 | 0.00 | 0.00 | 78 | 1009.6 |
| 20260506101333 | 17 | 162 | 0.0 | 8.0 | 0.00 | 0.00 | 0.00 | 79 | 1009.9 |
| 20260506100831 | 16 | 180 | 0.0 | 14.5 | 0.00 | 0.00 | 0.00 | 79 | 1009.8 |
| 20260506100329 | 17 | 119 | 0.0 | 3.2 | 0.00 | 0.00 | 0.00 | 81 | 1009.5 |
| 20260506095827 | 17 | 148 | 1.6 | 3.2 | 0.00 | 0.00 | 0.00 | 80 | 1009.5 |
| 20260506095324 | 17 | 150 | 1.6 | 4.8 | 0.00 | 0.00 | 0.00 | 79 | 1009.3 |
| 20260506094821 | 17 | 95 | 0.0 | 3.2 | 0.00 | 0.00 | 0.00 | 81 | 1009.5 |
| 20260506094320 | 17 | 156 | 0.0 | 1.6 | 0.00 | 0.00 | 0.00 | 80 | 1009.1 |
| 20260506093817 | 17 | 173 | 3.2 | 8.0 | 0.00 | 0.00 | 0.00 | 79 | 1009.3 |
| 20260506093314 | 17 | 197 | 3.2 | 8.0 | 0.00 | 0.00 | 0.00 | 80 | 1009.2 |
| 20260506092812 | 17 | 139 | 1.6 | 3.2 | 0.00 | 0.00 | 0.00 | 79 | 1009.1 |
| 20260506092310 | 17 | 91 | 3.2 | 11.3 | 0.00 | 0.00 | 0.00 | 80 | 1009.4 |
| 20260506091807 | 17 | 171 | 3.2 | 3.2 | 0.00 | 0.00 | 0.00 | 80 | 1009.3 |
| 20260506091304 | 17 | 173 | 1.6 | 3.2 | 0.00 | 0.00 | 0.00 | 80 | 1009.4 |
| 20260506090802 | 17 | 152 | 1.6 | 8.0 | 0.00 | 0.00 | 0.00 | 80 | 1009.4 |
| 20260506090259 | 17 | 147 | 1.6 | 3.2 | 0.00 | 0.00 | 0.00 | 80 | 1009.6 |
| 20260506085755 | 17 | 145 | 1.6 | 4.8 | 0.00 | 0.00 | 0.00 | 79 | 1009.3 |
| 20260506085251 | 17 | 134 | 1.6 | 3.2 | 0.00 | 0.00 | 0.00 | 80 | 1009.6 |
| 20260506084748 | 17 | 202 | 1.6 | 3.2 | 0.00 | 0.00 | 0.00 | 80 | 1009.5 |
| 20260506084244 | 17 | 169 | 6.4 | 8.0 | 0.00 | 0.00 | 0.00 | 81 | 1009.5 |
| 20260506083742 | 17 | 78 | 0.0 | 1.6 | 0.00 | 0.00 | 0.00 | 80 | 1009.6 |
| 20260506083240 | 17 | 248 | 3.2 | 3.2 | 0.00 | 0.00 | 0.00 | 80 | 1009.6 |
| 20260506082737 | 17 | 225 | 1.6 | 4.8 | 0.00 | 0.00 | 0.00 | 79 | 1009.9 |
| 20260506082232 | 17 | 167 | 0.0 | 4.8 | 0.00 | 0.00 | 0.00 | 79 | 1009.7 |
| 20260506081730 | 17 | 170 | 3.2 | 12.9 | 0.00 | 0.00 | 0.00 | 79 | 1009.8 |
| 20260506081227 | 17 | 163 | 1.6 | 3.2 | 0.00 | 0.00 | 0.00 | 80 | 1009.8 |
| 20260506080725 | 17 | 178 | 0.0 | 3.2 | 0.00 | 0.00 | 0.00 | 80 | 1009.9 |
| 20260506080221 | 17 | 136 | 3.2 | 4.8 | 0.00 | 0.00 | 0.00 | 80 | 1009.8 |
| 20260506073206 | 17 | 146 | 1.6 | 3.2 | 0.00 | 0.00 | 0.00 | 80 | 1009.5 |
| 20260506072702 | 17 | 145 | 1.6 | 1.6 | 0.00 | 0.00 | 0.00 | 80 | 1009.6 |
| 20260506072159 | 17 | 156 | 3.2 | 4.8 | 0.00 | 0.00 | 0.00 | 79 | 1009.8 |
| 20260506071657 | 17 | 206 | 1.6 | 4.8 | 0.00 | 0.00 | 0.00 | 79 | 1009.8 |
| 20260506071155 | 17 | 162 | 1.6 | 3.2 | 0.00 | 0.00 | 0.00 | 79 | 1009.8 |
| 20260506070652 | 17 | 98 | 1.6 | 3.2 | 0.00 | 0.00 | 0.00 | 79 | 1009.6 |
| 20260506070148 | 17 | 149 | 0.0 | 8.0 | 0.00 | 0.00 | 0.00 | 79 | 1009.7 |
| 20260506062126 | 18 | 163 | 4.8 | 4.8 | 0.00 | 0.00 | 0.00 | 78 | 1009.9 |
| 20260506061621 | 18 | 217 | 4.8 | 8.0 | 0.00 | 0.00 | 0.00 | 79 | 1010.0 |
| 20260506061120 | 18 | 136 | 1.6 | 3.2 | 0.00 | 0.00 | 0.00 | 78 | 1010.0 |
| 20260506060618 | 18 | 131 | 0.0 | 3.2 | 0.00 | 0.00 | 0.00 | 78 | 1009.8 |
| 20260506060114 | 18 | 246 | 3.2 | 3.2 | 0.00 | 0.00 | 0.00 | 79 | 1010.0 |
| 20260506051046 | 18 | 166 | 1.6 | 4.8 | 0.00 | 0.00 | 0.00 | 76 | 1010.3 |
| 20260506050544 | 18 | 131 | 4.8 | 9.7 | 0.00 | 0.00 | 0.00 | 75 | 1010.4 |
| 20260506045035 | 18 | 156 | 1.6 | 1.6 | 0.00 | 0.00 | 0.00 | 76 | 1010.5 |
| 20260506044533 | 18 | 122 | 3.2 | 4.8 | 0.00 | 0.00 | 0.00 | 76 | 1010.5 |
| 20260506044029 | 18 | 146 | 1.6 | 4.8 | 0.00 | 0.00 | 0.00 | 75 | 1010.6 |
| 20260506043526 | 18 | 131 | 6.4 | 11.3 | 0.00 | 0.00 | 0.00 | 75 | 1010.7 |
| 20260506043025 | 18 | 115 | 1.6 | 3.2 | 0.00 | 0.00 | 0.00 | 75 | 1010.5 |
| 20260506042523 | 18 | 139 | 3.2 | 9.7 | 0.00 | 0.00 | 0.00 | 75 | 1010.6 |
| 20260506042021 | 18 | 152 | 0.0 | 1.6 | 0.00 | 0.00 | 0.00 | 75 | 1010.6 |
| 20260506041519 | 18 | 145 | 0.0 | 4.8 | 0.00 | 0.00 | 0.00 | 74 | 1010.4 |
| 20260506041016 | 18 | 169 | 3.2 | 4.8 | 0.00 | 0.00 | 0.00 | 74 | 1010.3 |
| 20260506040514 | 18 | 154 | 1.6 | 3.2 | 0.00 | 0.00 | 0.00 | 74 | 1010.2 |
| 20260506040009 | 18 | 155 | 1.6 | 4.8 | 0.00 | 0.00 | 0.00 | 74 | 1010.3 |
| 20260506035506 | 18 | 153 | 0.0 | 3.2 | 0.00 | 0.00 | 0.00 | 74 | 1010.7 |
| 20260506035003 | 19 | 324 | 1.6 | 3.2 | 0.00 | 0.00 | 0.00 | 73 | 1010.5 |
| 20260506034501 | 18 | 145 | 0.0 | 4.8 | 0.00 | 0.00 | 0.00 | 73 | 1010.7 |
| 20260506033957 | 18 | 150 | 1.6 | 3.2 | 0.00 | 0.00 | 0.00 | 73 | 1010.4 |
| 20260506033455 | 19 | 152 | 1.6 | 3.2 | 0.00 | 0.00 | 0.00 | 72 | 1010.3 |
| 20260506032951 | 19 | 354 | 3.2 | 11.3 | 0.00 | 0.00 | 0.00 | 72 | 1010.4 |
| 20260506032449 | 18 | 179 | 1.6 | 3.2 | 0.00 | 0.00 | 0.00 | 72 | 1010.5 |
| 20260506031945 | 19 | 149 | 0.0 | 3.2 | 0.00 | 0.00 | 0.00 | 72 | 1010.5 |
| 20260506031443 | 19 | 140 | 1.6 | 3.2 | 0.00 | 0.00 | 0.00 | 72 | 1010.5 |
| 20260506030940 | 19 | 146 | 0.0 | 3.2 | 0.00 | 0.00 | 0.00 | 71 | 1010.5 |
| 20260506030438 | 19 | 146 | 1.6 | 3.2 | 0.00 | 0.00 | 0.00 | 70 | 1010.5 |
| 20260506025934 | 19 | 180 | 1.6 | 3.2 | 0.00 | 0.00 | 0.00 | 70 | 1010.6 |
| 20260506025431 | 19 | 266 | 3.2 | 4.8 | 0.00 | 0.00 | 0.00 | 70 | 1010.6 |
| 20260506024928 | 19 | 183 | 1.6 | 3.2 | 0.00 | 0.00 | 0.00 | 70 | 1010.6 |
| 20260506024425 | 20 | 160 | 1.6 | 4.8 | 0.00 | 0.00 | 0.00 | 69 | 1010.7 |
| 20260506023921 | 20 | 176 | 0.0 | 9.7 | 0.00 | 0.00 | 0.00 | 68 | 1010.7 |
| 20260506023418 | 20 | 150 | 1.6 | 8.0 | 0.00 | 0.00 | 0.00 | 68 | 1010.6 |
| 20260506022915 | 20 | 219 | 0.0 | 4.8 | 0.00 | 0.00 | 0.00 | 68 | 1010.7 |
| 20260506022413 | 20 | 142 | 0.0 | 3.2 | 0.00 | 0.00 | 0.00 | 67 | 1010.6 |
| 20260506021910 | 20 | 128 | 3.2 | 4.8 | 0.00 | 0.00 | 0.00 | 67 | 1010.6 |
| 20260506021407 | 20 | 181 | 3.2 | 4.8 | 0.00 | 0.00 | 0.00 | 66 | 1010.7 |
| 20260506020903 | 20 | 119 | 0.0 | 8.0 | 0.00 | 0.00 | 0.00 | 66 | 1010.6 |
| 20260506020402 | 20 | 97 | 1.6 | 4.8 | 0.00 | 0.00 | 0.00 | 65 | 1010.7 |
| 20260506015859 | 20 | 133 | 3.2 | 4.8 | 0.00 | 0.00 | 0.00 | 65 | 1010.5 |
| 20260506015357 | 20 | 87 | 3.2 | 4.8 | 0.00 | 0.00 | 0.00 | 64 | 1010.7 |
| 20260506014853 | 20 | 179 | 1.6 | 4.8 | 0.00 | 0.00 | 0.00 | 63 | 1010.7 |
| 20260506014350 | 20 | 215 | 3.2 | 9.7 | 0.00 | 0.00 | 0.00 | 62 | 1010.6 |
| 20260506013847 | 20 | 139 | 1.6 | 3.2 | 0.00 | 0.00 | 0.00 | 62 | 1010.4 |
| 20260506013344 | 20 | 166 | 1.6 | 8.0 | 0.00 | 0.00 | 0.00 | 62 | 1010.5 |
| 20260506012840 | 20 | 168 | 3.2 | 8.0 | 0.00 | 0.00 | 0.00 | 61 | 1010.3 |
| 20260506012337 | 20 | 228 | 3.2 | 8.0 | 0.00 | 0.00 | 0.00 | 62 | 1010.2 |
| 20260506011835 | 20 | 178 | 1.6 | 8.0 | 0.00 | 0.00 | 0.00 | 62 | 1010.1 |
| 20260506011331 | 20 | 155 | 0.0 | 4.8 | 0.00 | 0.00 | 0.00 | 62 | 1010.2 |
| 20260506010828 | 20 | 149 | 1.6 | 3.2 | 0.00 | 0.00 | 0.00 | 62 | 1009.9 |
| 20260506010326 | 20 | 161 | 0.0 | 3.2 | 0.00 | 0.00 | 0.00 | 62 | 1009.9 |
| 20260506005823 | 20 | 149 | 1.6 | 8.0 | 0.00 | 0.00 | 0.00 | 62 | 1010.0 |
| 20260506005320 | 20 | 159 | 1.6 | 4.8 | 0.00 | 0.00 | 0.00 | 61 | 1010.2 |
| 20260506004816 | 20 | 175 | 1.6 | 3.2 | 0.00 | 0.00 | 0.00 | 62 | 1010.3 |
| 20260506004314 | 21 | 201 | 1.6 | 3.2 | 0.00 | 0.00 | 0.00 | 62 | 1010.0 |
| 20260506003809 | 21 | 171 | 1.6 | 4.8 | 0.00 | 0.00 | 0.00 | 61 | 1009.9 |
| 20260506003306 | 21 | 154 | 1.6 | 1.6 | 0.00 | 0.00 | 0.00 | 62 | 1009.6 |
| 20260506002802 | 21 | 172 | 3.2 | 3.2 | 0.00 | 0.00 | 0.00 | 61 | 1009.6 |
| 20260506002259 | 21 | 155 | 0.0 | 4.8 | 0.00 | 0.00 | 0.00 | 61 | 1009.5 |
| 20260506001754 | 21 | 102 | 1.6 | 3.2 | 0.00 | 0.00 | 0.00 | 61 | 1009.7 |
| 20260506001252 | 21 | 163 | 1.6 | 3.2 | 0.00 | 0.00 | 0.00 | 61 | 1009.6 |
| 20260506000749 | 21 | 148 | 1.6 | 3.2 | 0.00 | 0.00 | 0.00 | 60 | 1009.4 |
| 20260506000247 | 21 | 185 | 4.8 | 4.8 | 0.00 | 0.00 | 0.00 | 59 | 1009.4 |
| 20260505235743 | 22 | 119 | 1.6 | 8.0 | 0.00 | 0.00 | 0.00 | 57 | 1009.7 |
| 20260505235241 | 22 | 128 | 0.0 | 1.6 | 0.00 | 0.00 | 0.00 | 56 | 1009.2 |
| 20260505234738 | 22 | 145 | 0.0 | 3.2 | 0.00 | 0.00 | 0.00 | 55 | 1009.5 |
| 20260505234235 | 22 | 132 | 3.2 | 8.0 | 0.00 | 0.00 | 0.00 | 53 | 1009.4 |
| 20260505233731 | 22 | 206 | 3.2 | 3.2 | 0.00 | 0.00 | 0.00 | 53 | 1009.4 |
| 20260505233230 | 23 | 123 | 0.0 | 1.6 | 0.00 | 0.00 | 0.00 | 51 | 1009.2 |
| 20260505232726 | 23 | 151 | 0.0 | 9.7 | 0.00 | 0.00 | 0.00 | 50 | 1009.1 |
| 20260505232224 | 23 | 161 | 4.8 | 8.0 | 0.00 | 0.00 | 0.00 | 48 | 1009.1 |
| 20260505231721 | 23 | 147 | 1.6 | 3.2 | 0.00 | 0.00 | 0.00 | 48 | 1009.1 |
| 20260505231220 | 24 | 157 | 1.6 | 4.8 | 0.00 | 0.00 | 0.00 | 46 | 1009.0 |
| 20260505230717 | 25 | 147 | 1.6 | 4.8 | 0.00 | 0.00 | 0.00 | 45 | 1009.1 |
| 20260505230213 | 25 | 167 | 1.6 | 3.2 | 0.00 | 0.00 | 0.00 | 43 | 1009.1 |
| 20260505225710 | 26 | 260 | 0.0 | 8.0 | 0.00 | 0.00 | 0.00 | 41 | 1009.0 |
| 20260505225207 | 26 | 253 | 4.8 | 8.0 | 0.00 | 0.00 | 0.00 | 39 | 1009.0 |
| 20260505224703 | 26 | 201 | 4.8 | 11.3 | 0.00 | 0.00 | 0.00 | 39 | 1009.0 |
| 20260505224201 | 26 | 157 | 1.6 | 1.6 | 0.00 | 0.00 | 0.00 | 40 | 1009.1 |
| 20260505223658 | 26 | 172 | 8.0 | 9.7 | 0.00 | 0.00 | 0.00 | 40 | 1009.0 |
| 20260505223154 | 26 | 258 | 4.8 | 8.0 | 0.00 | 0.00 | 0.00 | 39 | 1009.1 |
| 20260505222650 | 26 | 137 | 1.6 | 8.0 | 0.00 | 0.00 | 0.00 | 39 | 1009.0 |
| 20260505222146 | 26 | 120 | 3.2 | 9.7 | 0.00 | 0.00 | 0.00 | 39 | 1008.8 |
| 20260505221643 | 26 | 149 | 3.2 | 12.9 | 0.00 | 0.00 | 0.00 | 39 | 1009.0 |
| 20260505221140 | 27 | 159 | 3.2 | 8.0 | 0.00 | 0.00 | 0.00 | 38 | 1009.0 |
| 20260505220638 | 27 | 43 | 3.2 | 8.0 | 0.00 | 0.00 | 0.00 | 37 | 1008.9 |
| 20260505220135 | 27 | 177 | 8.0 | 11.3 | 0.00 | 0.00 | 0.00 | 37 | 1008.7 |
| 20260505215632 | 27 | 136 | 3.2 | 3.2 | 0.00 | 0.00 | 0.00 | 38 | 1008.8 |
| 20260505215130 | 27 | 127 | 8.0 | 11.3 | 0.00 | 0.00 | 0.00 | 37 | 1008.8 |
| 20260505214628 | 27 | 145 | 1.6 | 12.9 | 0.00 | 0.00 | 0.00 | 37 | 1008.9 |
| 20260505214124 | 27 | 169 | 3.2 | 4.8 | 0.00 | 0.00 | 0.00 | 37 | 1008.8 |
| 20260505213622 | 27 | 297 | 6.4 | 29.0 | 0.00 | 0.00 | 0.00 | 37 | 1008.8 |
| 20260505213119 | 27 | 159 | 1.6 | 11.3 | 0.00 | 0.00 | 0.00 | 37 | 1008.4 |
| 20260505212615 | 27 | 174 | 4.8 | 8.0 | 0.00 | 0.00 | 0.00 | 37 | 1008.7 |
| 20260505212113 | 27 | 221 | 4.8 | 11.3 | 0.00 | 0.00 | 0.00 | 35 | 1008.8 |
| 20260505211609 | 28 | 226 | 4.8 | 8.0 | 0.00 | 0.00 | 0.00 | 35 | 1008.6 |
| 20260505211107 | 28 | 236 | 6.4 | 14.5 | 0.00 | 0.00 | 0.00 | 34 | 1008.7 |
| 20260505210603 | 28 | 216 | 3.2 | 8.0 | 0.00 | 0.00 | 0.00 | 36 | 1008.5 |
| 20260505210100 | 28 | 329 | 3.2 | 4.8 | 0.00 | 0.00 | 0.00 | 34 | 1008.7 |
| 20260505205558 | 28 | 154 | 4.8 | 9.7 | 0.00 | 0.00 | 0.00 | 35 | 1008.4 |
| 20260505205055 | 28 | 142 | 4.8 | 12.9 | 0.00 | 0.00 | 0.00 | 33 | 1008.2 |
| 20260505204552 | 28 | 214 | 8.0 | 17.7 | 0.00 | 0.00 | 0.00 | 33 | 1008.3 |
| 20260505204049 | 28 | 268 | 8.0 | 12.9 | 0.00 | 0.00 | 0.00 | 33 | 1008.4 |
| 20260505203546 | 28 | 75 | 3.2 | 9.7 | 0.00 | 0.00 | 0.00 | 33 | 1008.6 |
| 20260505203043 | 28 | 238 | 6.4 | 9.7 | 0.00 | 0.00 | 0.00 | 32 | 1008.1 |
| 20260505202539 | 28 | 185 | 4.8 | 4.8 | 0.00 | 0.00 | 0.00 | 33 | 1008.5 |
| 20260505202035 | 28 | 291 | 9.7 | 20.9 | 0.00 | 0.00 | 0.00 | 32 | 1008.1 |
| 20260505201533 | 28 | 152 | 1.6 | 9.7 | 0.00 | 0.00 | 0.00 | 34 | 1008.5 |
| 20260505201030 | 29 | 157 | 4.8 | 8.0 | 0.00 | 0.00 | 0.00 | 33 | 1008.4 |
| 20260505200528 | 29 | 160 | 1.6 | 3.2 | 0.00 | 0.00 | 0.00 | 34 | 1008.5 |
| 20260505200025 | 28 | 263 | 3.2 | 9.7 | 0.00 | 0.00 | 0.00 | 34 | 1008.5 |
| 20260505195520 | 28 | 196 | 4.8 | 9.7 | 0.00 | 0.00 | 0.00 | 34 | 1008.6 |
| 20260505195018 | 28 | 207 | 4.8 | 12.9 | 0.00 | 0.00 | 0.00 | 35 | 1008.6 |
| 20260505194515 | 28 | 164 | 6.4 | 16.1 | 0.00 | 0.00 | 0.00 | 35 | 1008.6 |
| 20260505194010 | 28 | 169 | 6.4 | 12.9 | 0.00 | 0.00 | 0.00 | 34 | 1008.4 |
| 20260505193508 | 28 | 135 | 3.2 | 17.7 | 0.00 | 0.00 | 0.00 | 37 | 1008.6 |